Time;durP1;ratioP1;P1;durP2;ratioP2;P2;SDS_P1;SDS_P2;PMS_P1;PMS_P2;Temp;Humidity;BMP_temperature;BMP_pressure;BME280_temperature;BME280_humidity;BME280_pressure;Samples;Min_cycle;Max_cycle;Signal;HPM_P1;HPM_P2
2023/07/01 00:00:09;;;;;;;20.45;6.38;;;21.70;86.30;;;;;;5026898;28;20022;-54
2023/07/01 00:02:36;;;;;;;20.50;6.43;;;21.60;86.30;;;;;;5018404;28;20497;-54
2023/07/01 00:05:04;;;;;;;15.73;5.50;;;21.70;86.40;;;;;;5026091;28;20033;-54
2023/07/01 00:07:29;;;;;;;15.05;5.50;;;21.60;86.60;;;;;;5027640;28;20046;-54
2023/07/01 00:09:55;;;;;;;22.42;6.13;;;21.60;86.60;;;;;;5026638;28;20117;-54
2023/07/01 00:12:20;;;;;;;16.80;6.00;;;21.60;86.60;;;;;;5027066;28;20038;-54
2023/07/01 00:14:46;;;;;;;22.38;5.88;;;21.60;86.50;;;;;;5028248;28;20026;-54
2023/07/01 00:17:12;;;;;;;15.60;5.45;;;21.60;86.70;;;;;;5026426;28;20060;-54
2023/07/01 00:19:38;;;;;;;20.80;6.18;;;21.60;86.80;;;;;;5013471;28;20039;-54
2023/07/01 00:22:04;;;;;;;14.25;5.05;;;21.60;86.90;;;;;;5006689;28;20027;-54
2023/07/01 00:24:29;;;;;;;15.45;5.70;;;21.50;86.80;;;;;;5022267;28;20045;-54
2023/07/01 00:26:55;;;;;;;17.35;5.57;;;21.50;86.80;;;;;;5025784;28;20026;-54
2023/07/01 00:29:20;;;;;;;17.60;5.43;;;21.50;86.90;;;;;;5020636;28;20076;-54
2023/07/01 00:31:46;;;;;;;16.35;5.97;;;21.50;86.90;;;;;;5017656;28;20068;-54
2023/07/01 00:34:12;;;;;;;13.77;5.18;;;21.50;87.10;;;;;;5038866;28;20121;-54
2023/07/01 00:36:38;;;;;;;15.48;5.32;;;21.50;86.90;;;;;;5013701;28;20363;-54
2023/07/01 00:39:03;;;;;;;18.20;5.10;;;21.50;86.90;;;;;;5025920;28;20038;-54
2023/07/01 00:41:29;;;;;;;13.35;5.47;;;21.50;86.80;;;;;;5026162;28;20026;-55
2023/07/01 00:43:55;;;;;;;14.82;5.20;;;21.50;86.90;;;;;;5009729;28;20040;-54
2023/07/01 00:46:21;;;;;;;9.75;5.22;;;21.50;86.90;;;;;;5027368;28;20049;-54
2023/07/01 00:48:47;;;;;;;11.60;4.80;;;21.50;86.90;;;;;;5027604;28;20034;-55
2023/07/01 00:51:12;;;;;;;11.02;4.85;;;21.50;86.90;;;;;;5026561;28;20040;-54
2023/07/01 00:53:39;;;;;;;14.50;5.10;;;21.50;87.00;;;;;;5026462;28;20026;-54
2023/07/01 00:56:05;;;;;;;14.27;4.95;;;21.40;86.90;;;;;;5009719;28;20061;-54
2023/07/01 00:58:32;;;;;;;11.25;4.40;;;21.50;87.00;;;;;;5025980;28;20042;-54
2023/07/01 01:00:58;;;;;;;9.80;4.68;;;21.40;86.90;;;;;;5025867;28;20034;-54
2023/07/01 01:03:35;;;;;;;8.85;4.78;;;21.50;86.90;;;;;;5025861;28;20032;-54
2023/07/01 01:06:20;;;;;;;9.30;4.60;;;21.50;86.90;;;;;;5025740;28;20089;-54
2023/07/01 01:08:55;;;;;;;8.45;4.20;;;21.40;87.00;;;;;;5027049;28;20402;-54
2023/07/01 01:11:20;;;;;;;11.38;4.55;;;21.40;86.90;;;;;;5027032;28;20042;-54
2023/07/01 01:13:46;;;;;;;11.95;4.63;;;21.40;86.90;;;;;;5019948;28;20386;-54
2023/07/01 01:16:11;;;;;;;15.10;4.75;;;21.40;86.80;;;;;;5014983;28;20025;-54
2023/07/01 01:18:37;;;;;;;13.68;4.45;;;21.40;86.80;;;;;;5005470;28;20094;-54
2023/07/01 01:21:04;;;;;;;12.18;4.70;;;21.40;86.90;;;;;;4989394;28;20077;-54
2023/07/01 01:23:36;;;;;;;9.70;4.50;;;21.40;86.90;;;;;;5008633;28;20052;-54
2023/07/01 01:26:07;;;;;;;14.07;4.15;;;21.40;86.90;;;;;;5025057;28;20030;-54
2023/07/01 01:28:34;;;;;;;12.35;4.28;;;21.30;86.90;;;;;;5008885;28;20046;-54
2023/07/01 01:30:59;;;;;;;8.15;4.28;;;21.30;86.80;;;;;;5025068;28;20040;-54
2023/07/01 01:33:25;;;;;;;9.52;4.00;;;21.30;86.80;;;;;;5025843;28;20030;-54
2023/07/01 01:35:51;;;;;;;14.82;4.80;;;21.30;86.80;;;;;;5026604;28;20030;-54
2023/07/01 01:38:22;;;;;;;12.50;4.18;;;21.30;86.80;;;;;;5008533;28;20034;-54
2023/07/01 01:41:14;;;;;;;8.10;3.70;;;21.30;86.80;;;;;;5025108;28;20056;-54
2023/07/01 01:43:56;;;;;;;9.40;3.72;;;21.30;86.80;;;;;;5003828;28;20574;-54
2023/07/01 01:46:22;;;;;;;9.75;4.28;;;21.30;86.70;;;;;;5022969;28;20084;-54
2023/07/01 01:48:47;;;;;;;6.80;4.00;;;21.30;86.70;;;;;;5024458;28;20046;-54
2023/07/01 01:51:13;;;;;;;7.57;4.00;;;21.30;86.60;;;;;;5025760;28;20054;-54
2023/07/01 01:53:39;;;;;;;7.95;5.10;;;21.30;86.60;;;;;;4992526;28;20031;-54
2023/07/01 01:56:05;;;;;;;9.55;5.13;;;21.30;86.50;;;;;;5025404;28;20044;-54
2023/07/01 01:58:30;;;;;;;10.98;5.75;;;21.30;86.50;;;;;;5007618;28;20038;-54
2023/07/01 02:00:56;;;;;;;6.88;5.10;;;21.30;86.50;;;;;;5005392;28;20034;-54
2023/07/01 02:03:21;;;;;;;8.88;4.32;;;21.30;86.50;;;;;;5024189;28;20101;-54
2023/07/01 02:05:47;;;;;;;6.45;4.40;;;21.30;86.40;;;;;;5025536;28;20080;-54
2023/07/01 02:08:12;;;;;;;9.15;4.53;;;21.30;86.50;;;;;;5025683;28;20042;-54
2023/07/01 02:10:38;;;;;;;8.65;4.78;;;21.30;86.40;;;;;;5025726;28;20034;-54
2023/07/01 02:13:05;;;;;;;9.60;4.85;;;21.30;86.50;;;;;;5011013;28;20049;-54
2023/07/01 02:15:31;;;;;;;9.80;4.18;;;21.20;86.30;;;;;;5020392;28;20165;-54
2023/07/01 02:17:56;;;;;;;10.13;4.80;;;21.20;86.20;;;;;;5020912;28;20030;-54
2023/07/01 02:20:22;;;;;;;8.40;4.65;;;21.30;86.20;;;;;;5006540;28;20102;-54
2023/07/01 02:22:47;;;;;;;8.68;5.18;;;21.20;86.20;;;;;;5016152;28;20038;-54
2023/07/01 02:25:13;;;;;;;7.00;4.43;;;21.20;86.20;;;;;;5013655;28;20434;-54
2023/07/01 02:27:39;;;;;;;8.93;4.68;;;21.20;86.20;;;;;;5002832;28;20034;-54
2023/07/01 02:30:06;;;;;;;8.40;4.60;;;21.20;86.30;;;;;;5007640;28;20044;-54
2023/07/01 02:32:31;;;;;;;20.33;6.15;;;21.20;86.30;;;;;;5024253;28;20477;-54
2023/07/01 02:34:57;;;;;;;9.90;4.70;;;21.20;86.50;;;;;;5017634;28;20030;-54
2023/07/01 02:37:22;;;;;;;9.90;4.93;;;21.20;86.40;;;;;;5007619;28;20045;-54
2023/07/01 02:39:48;;;;;;;6.25;4.68;;;21.20;86.40;;;;;;5024744;28;20030;-54
2023/07/01 02:42:16;;;;;;;7.38;4.38;;;21.20;86.30;;;;;;5024059;28;20433;-54
2023/07/01 02:44:42;;;;;;;8.35;4.32;;;21.10;86.30;;;;;;5025748;28;20542;-54
2023/07/01 02:47:07;;;;;;;7.55;4.32;;;21.10;86.30;;;;;;5017487;28;20105;-54
2023/07/01 02:49:33;;;;;;;5.57;4.25;;;21.20;86.50;;;;;;5023182;28;20037;-54
2023/07/01 02:51:58;;;;;;;5.57;4.40;;;21.20;86.20;;;;;;5014769;28;20072;-54
2023/07/01 02:54:24;;;;;;;9.50;4.75;;;21.20;86.30;;;;;;5022408;28;20042;-54
2023/07/01 02:56:49;;;;;;;7.97;4.20;;;21.20;85.90;;;;;;5023718;28;20025;-54
2023/07/01 02:59:15;;;;;;;12.73;4.80;;;21.20;86.00;;;;;;5025188;28;20072;-54
2023/07/01 03:01:44;;;;;;;8.00;5.53;;;21.20;86.00;;;;;;5028108;28;20097;-54
2023/07/01 03:04:09;;;;;;;10.07;4.97;;;21.20;86.00;;;;;;5027834;28;20116;-54
2023/07/01 03:06:35;;;;;;;8.05;5.18;;;21.20;86.00;;;;;;5026631;28;20033;-54
2023/07/01 03:09:07;;;;;;;9.57;4.93;;;21.10;85.90;;;;;;5028223;28;20033;-54
2023/07/01 03:11:34;;;;;;;10.23;4.85;;;21.10;86.00;;;;;;5027662;28;20037;-54
2023/07/01 03:13:59;;;;;;;9.18;4.55;;;21.10;86.40;;;;;;5027279;28;20034;-54
2023/07/01 03:16:25;;;;;;;8.88;5.13;;;21.10;86.30;;;;;;5027353;28;20054;-54
2023/07/01 03:18:51;;;;;;;16.85;5.97;;;21.10;87.50;;;;;;5028160;28;20030;-54
2023/07/01 03:21:16;;;;;;;8.45;4.13;;;21.20;86.60;;;;;;5027126;28;20030;-54
2023/07/01 03:23:42;;;;;;;9.68;5.32;;;21.10;86.20;;;;;;5007031;28;20372;-54
2023/07/01 03:26:07;;;;;;;13.32;4.55;;;21.10;86.70;;;;;;5026386;28;20512;-54
2023/07/01 03:28:33;;;;;;;9.63;4.93;;;21.20;85.90;;;;;;5027804;28;20522;-54
2023/07/01 03:30:58;;;;;;;9.05;6.30;;;21.10;85.90;;;;;;5027825;28;20030;-54
2023/07/01 03:33:25;;;;;;;11.40;5.80;;;21.10;85.90;;;;;;5025874;28;20520;-54
2023/07/01 03:35:50;;;;;;;8.65;5.30;;;21.10;85.80;;;;;;5008253;28;20031;-53
2023/07/01 03:38:16;;;;;;;8.82;5.32;;;21.10;85.80;;;;;;5015176;28;20041;-54
2023/07/01 03:40:41;;;;;;;8.18;4.70;;;21.10;85.80;;;;;;5027853;28;20481;-54
2023/07/01 03:43:07;;;;;;;6.72;4.82;;;21.10;85.90;;;;;;5027588;28;20077;-54
2023/07/01 03:45:32;;;;;;;8.38;4.38;;;21.10;86.30;;;;;;5028379;28;20034;-54
2023/07/01 03:47:58;;;;;;;9.45;4.68;;;21.10;85.90;;;;;;5026439;28;20050;-54
2023/07/01 03:50:23;;;;;;;10.43;5.00;;;21.00;85.90;;;;;;5026126;28;20030;-54
2023/07/01 03:52:49;;;;;;;6.60;4.25;;;21.10;85.80;;;;;;5023279;28;20082;-53
2023/07/01 03:55:14;;;;;;;9.20;4.40;;;21.10;85.80;;;;;;5028411;28;20030;-52
2023/07/01 03:57:40;;;;;;;8.50;4.80;;;21.10;85.70;;;;;;5021752;28;20026;-53
2023/07/01 04:00:27;;;;;;;8.43;4.85;;;21.10;85.70;;;;;;5007474;28;20042;-53
2023/07/01 04:02:53;;;;;;;10.90;4.70;;;21.00;85.60;;;;;;5010989;28;20057;-54
2023/07/01 04:05:19;;;;;;;10.32;5.05;;;21.10;85.70;;;;;;5025829;28;20026;-54
2023/07/01 04:07:46;;;;;;;8.32;4.47;;;21.00;85.70;;;;;;5026276;28;20064;-53
2023/07/01 04:10:11;;;;;;;6.13;4.80;;;21.10;85.70;;;;;;5006781;28;20445;-54
2023/07/01 04:12:37;;;;;;;6.25;4.75;;;21.00;85.70;;;;;;5024237;28;20021;-54
2023/07/01 04:15:09;;;;;;;12.95;4.72;;;21.00;85.70;;;;;;5021265;28;20056;-54
2023/07/01 04:17:35;;;;;;;7.05;4.72;;;21.00;85.70;;;;;;5001407;28;20140;-54
2023/07/01 04:20:02;;;;;;;10.35;4.93;;;21.10;85.80;;;;;;5026465;28;20034;-53
2023/07/01 04:22:28;;;;;;;12.35;5.45;;;21.00;85.80;;;;;;5026533;28;20038;-54
2023/07/01 04:24:53;;;;;;;16.55;6.72;;;21.00;85.80;;;;;;5009912;28;20049;-53
2023/07/01 04:27:19;;;;;;;11.05;6.03;;;21.00;85.70;;;;;;5025997;28;20029;-54
2023/07/01 04:29:45;;;;;;;12.85;6.10;;;21.00;85.60;;;;;;5026763;28;20490;-54
2023/07/01 04:32:10;;;;;;;16.80;7.03;;;21.00;85.70;;;;;;5027374;28;20033;-54
2023/07/01 04:34:36;;;;;;;15.27;6.60;;;21.00;85.70;;;;;;5017033;28;20081;-54
2023/07/01 04:37:02;;;;;;;13.65;6.38;;;21.00;85.60;;;;;;5011235;28;20081;-53
2023/07/01 04:39:27;;;;;;;13.27;6.72;;;21.00;85.60;;;;;;5007560;28;20042;-54
2023/07/01 04:41:53;;;;;;;7.30;5.57;;;21.00;85.50;;;;;;5019909;28;20030;-54
2023/07/01 04:44:18;;;;;;;22.58;7.70;;;21.00;85.30;;;;;;5025671;28;20030;-54
2023/07/01 04:46:44;;;;;;;29.85;8.40;;;21.00;85.20;;;;;;5025777;28;20624;-54
2023/07/01 04:49:10;;;;;;;39.97;9.10;;;21.10;85.30;;;;;;5025638;28;20489;-54
2023/07/01 04:51:36;;;;;;;27.88;8.23;;;21.10;85.30;;;;;;5008451;28;20026;-54
2023/07/01 04:54:03;;;;;;;52.53;10.15;;;21.00;85.10;;;;;;5013555;28;20053;-53
2023/07/01 04:56:29;;;;;;;56.45;10.48;;;21.00;85.20;;;;;;5016467;28;20033;-54
2023/07/01 04:58:55;;;;;;;55.05;10.32;;;21.00;85.90;;;;;;5025063;28;20119;-53
2023/07/01 05:01:20;;;;;;;46.85;9.77;;;21.00;85.20;;;;;;5026668;28;20386;-53
2023/07/01 05:03:46;;;;;;;31.42;9.18;;;21.00;85.20;;;;;;5025292;28;20037;-54
2023/07/01 05:06:12;;;;;;;42.83;9.10;;;21.00;85.20;;;;;;5009008;28;20371;-53
2023/07/01 05:08:37;;;;;;;38.60;9.00;;;21.00;85.10;;;;;;5025918;28;20041;-54
2023/07/01 05:11:03;;;;;;;40.03;9.23;;;21.00;85.20;;;;;;5025833;28;20032;-53
2023/07/01 05:13:29;;;;;;;35.33;8.98;;;21.00;85.10;;;;;;5025405;28;20094;-54
2023/07/01 05:15:54;;;;;;;28.48;8.95;;;21.00;85.00;;;;;;5005080;28;20061;-54
2023/07/01 05:18:20;;;;;;;53.58;10.15;;;21.00;85.00;;;;;;5000825;28;20037;-53
2023/07/01 05:20:46;;;;;;;46.80;10.18;;;21.00;85.00;;;;;;5025606;28;20045;-54
2023/07/01 05:23:11;;;;;;;35.97;7.88;;;21.00;85.00;;;;;;5024938;28;20030;-54
2023/07/01 05:25:37;;;;;;;18.42;6.95;;;21.00;84.90;;;;;;5025583;28;20050;-54
2023/07/01 05:28:02;;;;;;;27.52;7.07;;;21.00;84.90;;;;;;5026318;28;20034;-54
2023/07/01 05:30:28;;;;;;;27.85;8.02;;;21.00;84.90;;;;;;5025335;28;20033;-53
2023/07/01 05:32:53;;;;;;;33.65;8.00;;;21.00;84.90;;;;;;5024688;28;20477;-53
2023/07/01 05:35:19;;;;;;;25.65;7.30;;;21.00;84.80;;;;;;5023880;28;20029;-54
2023/07/01 05:37:45;;;;;;;28.20;8.15;;;21.00;84.80;;;;;;5024844;28;20520;-53
2023/07/01 05:40:12;;;;;;;32.97;7.70;;;21.00;84.70;;;;;;5008796;28;20025;-54
2023/07/01 05:42:38;;;;;;;33.58;7.63;;;21.00;84.70;;;;;;5008565;28;20441;-53
2023/07/01 05:45:04;;;;;;;29.50;7.00;;;21.00;84.70;;;;;;5024800;28;20026;-54
2023/07/01 05:47:30;;;;;;;32.92;7.22;;;21.00;84.60;;;;;;5008520;28;20124;-54
2023/07/01 05:49:55;;;;;;;21.02;6.20;;;21.10;84.70;;;;;;5023983;28;20032;-53
2023/07/01 05:52:21;;;;;;;22.10;7.05;;;21.10;85.00;;;;;;5024872;28;20026;-54
2023/07/01 05:54:46;;;;;;;20.38;6.45;;;21.00;84.70;;;;;;5008503;28;20089;-54
2023/07/01 05:57:12;;;;;;;21.55;6.47;;;21.00;84.70;;;;;;5023985;28;20030;-54
2023/07/01 05:59:37;;;;;;;16.60;6.25;;;21.00;84.70;;;;;;5016313;28;20034;-54
2023/07/01 06:02:03;;;;;;;22.23;5.63;;;21.00;84.80;;;;;;5011336;28;20084;-53
2023/07/01 06:04:29;;;;;;;25.88;6.10;;;21.00;84.80;;;;;;5021756;28;20045;-53
2023/07/01 06:06:54;;;;;;;27.67;6.15;;;21.00;84.90;;;;;;4993366;28;20058;-54
2023/07/01 06:09:20;;;;;;;17.58;6.32;;;21.00;84.90;;;;;;5026829;28;20036;-53
2023/07/01 06:11:45;;;;;;;21.23;5.65;;;21.00;84.80;;;;;;5023534;28;20121;-53
2023/07/01 06:14:11;;;;;;;20.73;6.03;;;21.00;84.70;;;;;;5023164;28;20049;-53
2023/07/01 06:16:37;;;;;;;14.80;5.60;;;21.00;84.70;;;;;;5007853;28;20027;-54
2023/07/01 06:19:02;;;;;;;14.73;5.50;;;21.00;84.60;;;;;;5024612;28;20397;-53
2023/07/01 06:21:28;;;;;;;23.10;6.18;;;21.00;84.60;;;;;;5025718;28;20029;-54
2023/07/01 06:23:55;;;;;;;20.67;6.13;;;21.00;84.50;;;;;;5025591;28;20033;-53
2023/07/01 06:26:20;;;;;;;16.80;5.32;;;21.00;84.50;;;;;;5026174;28;20022;-53
2023/07/01 06:28:46;;;;;;;20.65;6.07;;;21.10;84.40;;;;;;5006356;28;20045;-53
2023/07/01 06:31:12;;;;;;;14.25;5.15;;;21.10;84.40;;;;;;5024502;28;20037;-53
2023/07/01 06:33:40;;;;;;;15.02;5.53;;;21.00;84.20;;;;;;5024905;28;20038;-54
2023/07/01 06:36:06;;;;;;;15.18;5.07;;;21.00;84.10;;;;;;5026901;28;20030;-53
2023/07/01 06:38:32;;;;;;;25.60;5.40;;;21.10;84.10;;;;;;5012541;28;20058;-54
2023/07/01 06:40:57;;;;;;;16.48;5.32;;;21.00;84.00;;;;;;5010219;28;20029;-53
2023/07/01 06:43:23;;;;;;;14.80;5.50;;;21.10;83.90;;;;;;5005916;28;20030;-53
2023/07/01 06:45:48;;;;;;;13.07;4.68;;;21.00;83.80;;;;;;5009059;28;20022;-53
2023/07/01 06:48:14;;;;;;;18.08;4.80;;;21.00;83.80;;;;;;5027018;28;20045;-53
2023/07/01 06:50:40;;;;;;;14.55;4.95;;;21.00;83.70;;;;;;5028939;28;20045;-54
2023/07/01 06:53:06;;;;;;;14.13;4.18;;;21.00;83.60;;;;;;5027037;28;20090;-54
2023/07/01 06:55:31;;;;;;;14.25;4.82;;;21.00;83.50;;;;;;5029386;28;20033;-54
2023/07/01 06:57:57;;;;;;;13.50;4.72;;;21.00;83.30;;;;;;5028698;28;20034;-54
2023/07/01 07:00:22;;;;;;;18.88;4.57;;;21.00;83.20;;;;;;5027750;28;20030;-52
2023/07/01 07:02:48;;;;;;;13.75;4.70;;;21.00;83.10;;;;;;5019175;28;20037;-53
2023/07/01 07:05:13;;;;;;;13.27;4.55;;;21.00;83.00;;;;;;5027080;28;20026;-53
2023/07/01 07:07:39;;;;;;;9.55;4.10;;;21.00;82.90;;;;;;5010823;28;20041;-53
2023/07/01 07:10:05;;;;;;;11.25;3.92;;;21.00;82.80;;;;;;5016701;28;20034;-53
2023/07/01 07:12:31;;;;;;;13.82;4.60;;;21.00;82.80;;;;;;5014590;28;20030;-54
2023/07/01 07:14:56;;;;;;;11.05;4.25;;;21.00;82.80;;;;;;5028091;28;20082;-53
2023/07/01 07:17:22;;;;;;;9.40;3.53;;;21.00;82.70;;;;;;5027409;28;20026;-54
2023/07/01 07:19:47;;;;;;;12.45;3.83;;;21.00;82.50;;;;;;5028557;28;20109;-54
2023/07/01 07:22:13;;;;;;;13.45;4.28;;;21.00;82.40;;;;;;5026574;28;20021;-53
2023/07/01 07:24:39;;;;;;;7.78;4.00;;;21.00;82.40;;;;;;5027934;28;20026;-54
2023/07/01 07:27:05;;;;;;;12.57;4.03;;;21.00;82.30;;;;;;5026804;28;20476;-54
2023/07/01 07:29:31;;;;;;;9.63;3.17;;;21.00;82.10;;;;;;5027548;28;20053;-53
2023/07/01 07:31:57;;;;;;;8.45;3.90;;;21.00;82.00;;;;;;5026967;28;20026;-54
2023/07/01 07:34:23;;;;;;;12.15;3.70;;;21.00;81.90;;;;;;5006941;28;20038;-53
2023/07/01 07:36:48;;;;;;;10.23;4.05;;;21.00;81.90;;;;;;5018839;28;20032;-54
2023/07/01 07:39:14;;;;;;;14.05;4.00;;;21.00;81.80;;;;;;5027580;28;20034;-54
2023/07/01 07:41:40;;;;;;;10.00;3.85;;;21.00;81.80;;;;;;5010778;28;20528;-54
2023/07/01 07:44:06;;;;;;;9.43;3.70;;;21.00;82.40;;;;;;5026224;28;20038;-54
2023/07/01 07:46:35;;;;;;;8.30;3.63;;;21.00;81.60;;;;;;5027331;28;20076;-54
2023/07/01 07:49:01;;;;;;;12.05;3.38;;;21.00;81.50;;;;;;5027859;28;20045;-53
2023/07/01 07:51:27;;;;;;;5.53;3.28;;;21.00;81.40;;;;;;5027767;28;20030;-53
2023/07/01 07:53:52;;;;;;;7.05;2.90;;;21.00;81.30;;;;;;5021880;28;20061;-53
2023/07/01 07:56:18;;;;;;;8.93;2.95;;;21.00;81.20;;;;;;5008439;28;20132;-53
2023/07/01 07:58:45;;;;;;;10.05;3.55;;;21.00;81.10;;;;;;5023119;28;20035;-53
2023/07/01 08:01:10;;;;;;;8.40;3.08;;;21.00;81.00;;;;;;5019371;28;20029;-53
2023/07/01 08:03:36;;;;;;;8.90;2.95;;;21.00;80.90;;;;;;5006913;28;20054;-53
2023/07/01 08:06:01;;;;;;;12.13;3.17;;;21.00;80.70;;;;;;5026944;28;20057;-53
2023/07/01 08:08:27;;;;;;;5.32;2.70;;;21.00;80.40;;;;;;5013630;28;20038;-54
2023/07/01 08:10:53;;;;;;;16.95;4.00;;;21.00;80.30;;;;;;5022119;28;20486;-53
2023/07/01 08:13:18;;;;;;;10.80;3.50;;;21.00;80.20;;;;;;5016061;28;20061;-53
2023/07/01 08:15:44;;;;;;;21.42;4.53;;;21.00;80.10;;;;;;5008371;28;20073;-53
2023/07/01 08:18:09;;;;;;;19.67;4.07;;;20.90;80.10;;;;;;5044628;28;20378;-54
2023/07/01 08:20:35;;;;;;;17.25;3.90;;;20.90;80.70;;;;;;5030549;28;20049;-53
2023/07/01 08:23:00;;;;;;;14.00;3.78;;;20.90;80.00;;;;;;5035863;28;20025;-53
2023/07/01 08:25:26;;;;;;;19.98;4.38;;;20.90;79.90;;;;;;5026603;28;20061;-53
2023/07/01 08:27:53;;;;;;;37.15;5.75;;;21.00;79.90;;;;;;5012243;28;20037;-53
2023/07/01 08:30:18;;;;;;;20.98;4.70;;;21.00;79.90;;;;;;5023531;28;20030;-54
2023/07/01 08:32:44;;;;;;;20.50;4.72;;;21.00;79.80;;;;;;5011591;28;20057;-53
2023/07/01 08:35:09;;;;;;;35.15;5.50;;;21.10;80.00;;;;;;5016944;28;20052;-53
2023/07/01 08:37:35;;;;;;;38.33;5.28;;;21.00;79.90;;;;;;5020449;28;20034;-53
2023/07/01 08:40:00;;;;;;;45.13;5.88;;;21.10;80.70;;;;;;5012602;28;20026;-53
2023/07/01 08:42:30;;;;;;;30.90;5.68;;;21.10;80.00;;;;;;5026630;28;20033;-54
2023/07/01 08:44:56;;;;;;;33.20;5.22;;;21.10;80.10;;;;;;4997736;28;20037;-52
2023/07/01 08:47:22;;;;;;;49.15;6.13;;;21.10;80.20;;;;;;5014416;28;20025;-53
2023/07/01 08:49:48;;;;;;;46.88;6.20;;;21.20;80.30;;;;;;5025919;28;20032;-53
2023/07/01 08:52:14;;;;;;;63.13;7.22;;;21.20;80.20;;;;;;5023387;28;20033;-53
2023/07/01 08:54:42;;;;;;;65.65;7.75;;;21.20;80.00;;;;;;5021751;28;20064;-53
2023/07/01 08:57:09;;;;;;;54.67;8.02;;;21.20;79.90;;;;;;5020770;28;20033;-54
2023/07/01 08:59:34;;;;;;;65.53;8.38;;;21.20;79.90;;;;;;5012257;28;20101;-53
2023/07/01 09:02:01;;;;;;;100.07;11.70;;;21.20;80.00;;;;;;5023284;28;20037;-53
2023/07/01 09:04:27;;;;;;;67.10;10.05;;;21.30;80.00;;;;;;5013830;28;20035;-53
2023/07/01 09:06:53;;;;;;;59.60;8.02;;;21.30;80.00;;;;;;5026671;28;20037;-53
2023/07/01 09:09:18;;;;;;;58.63;9.75;;;21.30;80.00;;;;;;5025569;28;20374;-53
2023/07/01 09:11:44;;;;;;;81.45;10.15;;;21.30;80.00;;;;;;5031564;28;20354;-53
2023/07/01 09:14:10;;;;;;;140.13;14.13;;;21.30;80.10;;;;;;5024473;28;20029;-53
2023/07/01 09:16:36;;;;;;;108.60;13.77;;;21.30;80.10;;;;;;5021770;28;20044;-53
2023/07/01 09:19:06;;;;;;;113.93;14.60;;;21.40;80.10;;;;;;4998481;28;20026;-53
2023/07/01 09:21:32;;;;;;;127.38;16.60;;;21.40;79.90;;;;;;5021120;28;20032;-53
2023/07/01 09:23:59;;;;;;;114.75;15.55;;;21.40;79.90;;;;;;5020037;28;20472;-53
2023/07/01 09:26:27;;;;;;;102.05;15.80;;;21.40;79.70;;;;;;5022108;28;21459;-53
2023/07/01 09:28:54;;;;;;;130.48;19.67;;;21.50;79.80;;;;;;5029617;28;20097;-53
2023/07/01 09:31:19;;;;;;;119.90;14.68;;;21.50;79.60;;;;;;5023074;28;20061;-53
2023/07/01 09:34:05;;;;;;;155.00;18.58;;;21.50;79.50;;;;;;5024089;28;20397;-53
2023/07/01 09:36:31;;;;;;;155.95;19.77;;;21.60;79.60;;;;;;5040163;28;20067;-53
2023/07/01 09:38:57;;;;;;;185.90;23.90;;;21.60;79.50;;;;;;5005244;28;20105;-53
2023/07/01 09:41:24;;;;;;;139.50;17.13;;;21.70;79.50;;;;;;4995095;28;20026;-53
2023/07/01 09:43:51;;;;;;;144.55;18.05;;;21.70;79.50;;;;;;5008422;28;20033;-52
2023/07/01 09:46:16;;;;;;;122.50;17.55;;;21.70;79.20;;;;;;5019357;28;20096;-53
2023/07/01 09:48:55;;;;;;;153.15;19.08;;;21.70;79.20;;;;;;5023187;28;20155;-53
2023/07/01 09:51:25;;;;;;;103.85;14.52;;;21.80;79.00;;;;;;5025236;28;20033;-53
2023/07/01 09:53:50;;;;;;;117.55;16.63;;;21.80;78.80;;;;;;5031428;28;20093;-53
2023/07/01 09:56:17;;;;;;;144.10;17.58;;;21.80;78.70;;;;;;5028960;28;20029;-52
2023/07/01 09:58:43;;;;;;;127.43;16.67;;;21.90;78.80;;;;;;5024014;28;20057;-53
2023/07/01 10:01:11;;;;;;;132.43;18.02;;;21.90;78.70;;;;;;5030504;28;20089;-52
2023/07/01 10:03:36;;;;;;;151.38;18.38;;;21.90;78.70;;;;;;5022488;28;20056;-53
2023/07/01 10:06:02;;;;;;;124.75;17.20;;;21.90;78.60;;;;;;5023993;28;20018;-52
2023/07/01 10:08:28;;;;;;;161.98;20.17;;;21.90;78.60;;;;;;5025540;28;20492;-52
2023/07/01 10:11:17;;;;;;;148.93;20.15;;;22.00;78.50;;;;;;5005824;28;20041;-53
2023/07/01 10:13:45;;;;;;;155.45;20.13;;;22.00;78.20;;;;;;5027185;28;20038;-53
2023/07/01 10:16:11;;;;;;;168.50;20.65;;;22.10;78.00;;;;;;5013125;28;20088;-52
2023/07/01 10:18:37;;;;;;;152.52;19.55;;;22.10;77.90;;;;;;5018787;28;20483;-52
2023/07/01 10:21:27;;;;;;;126.63;17.52;;;22.20;77.60;;;;;;5027740;28;20051;-53
2023/07/01 10:23:54;;;;;;;130.38;17.98;;;22.20;77.30;;;;;;5028735;28;20026;-51
2023/07/01 10:26:35;;;;;;;123.20;15.82;;;22.20;76.90;;;;;;5013807;28;20030;-53
2023/07/01 10:29:37;;;;;;;116.07;15.02;;;22.30;76.60;;;;;;5027094;28;20398;-53
2023/07/01 10:32:08;;;;;;;71.07;11.70;;;22.30;76.20;;;;;;4913572;29;20032;-53
2023/07/01 10:35:05;;;;;;;90.70;11.82;;;22.30;75.90;;;;;;5011085;28;20099;-52
2023/07/01 10:37:34;;;;;;;91.00;11.75;;;22.40;75.40;;;;;;5027738;28;20033;-53
2023/07/01 10:40:07;;;;;;;80.07;10.18;;;22.40;75.50;;;;;;5009081;28;20034;-53
2023/07/01 10:42:34;;;;;;;79.60;11.68;;;22.50;75.10;;;;;;5020166;28;20034;-52
2023/07/01 10:45:12;;;;;;;101.00;13.10;;;22.50;74.70;;;;;;5008394;28;20113;-53
2023/07/01 10:47:42;;;;;;;88.18;12.18;;;22.50;74.50;;;;;;5008538;28;20030;-52
2023/07/01 10:50:09;;;;;;;100.90;12.77;;;22.60;74.60;;;;;;5007347;28;20054;-52
2023/07/01 10:53:00;;;;;;;70.13;10.13;;;22.60;74.60;;;;;;4994335;28;20066;-53
2023/07/01 10:55:46;;;;;;;95.22;11.77;;;22.70;74.90;;;;;;5033458;28;20034;-52
2023/07/01 10:58:28;;;;;;;71.40;11.23;;;22.70;74.50;;;;;;5034443;28;20056;-52
2023/07/01 11:00:57;;;;;;;87.78;9.82;;;22.70;74.40;;;;;;5039498;28;20155;-52
2023/07/01 11:03:35;;;;;;;99.55;12.25;;;22.80;74.50;;;;;;5027161;28;20041;-52
2023/07/01 11:06:01;;;;;;;68.85;10.80;;;22.90;73.80;;;;;;5027106;28;20105;-51
2023/07/01 11:08:27;;;;;;;104.95;12.23;;;22.90;73.70;;;;;;5014404;28;20042;-52
2023/07/01 11:10:53;;;;;;;105.28;12.98;;;23.00;73.30;;;;;;5007113;28;20030;-52
2023/07/01 11:13:18;;;;;;;145.60;15.48;;;23.10;73.30;;;;;;5024417;28;20030;-52
2023/07/01 11:16:07;;;;;;;68.05;10.55;;;23.10;73.00;;;;;;5021081;28;20442;-52
2023/07/01 11:18:47;;;;;;;55.30;8.68;;;23.30;72.60;;;;;;5019468;28;20117;-52
2023/07/01 11:21:13;;;;;;;42.80;6.22;;;23.30;72.50;;;;;;5010671;28;20030;-52
2023/07/01 11:23:42;;;;;;;32.03;5.47;;;23.40;71.90;;;;;;5017020;28;20025;-53
2023/07/01 11:26:08;;;;;;;54.35;7.80;;;23.50;71.10;;;;;;5026675;28;20022;-52
2023/07/01 11:28:34;;;;;;;111.38;11.60;;;23.60;70.00;;;;;;5025534;28;20069;-52
2023/07/01 11:31:22;;;;;;;62.50;8.50;;;23.60;69.60;;;;;;5027259;28;20054;-52
2023/07/01 11:33:49;;;;;;;55.60;8.07;;;23.60;69.10;;;;;;4995993;28;20057;-52
2023/07/01 11:36:16;;;;;;;73.38;11.10;;;23.70;68.80;;;;;;5025051;28;20026;-52
2023/07/01 11:38:49;;;;;;;87.88;11.68;;;23.70;68.50;;;;;;5019306;28;20046;-52
2023/07/01 11:41:18;;;;;;;72.13;9.73;;;23.70;68.20;;;;;;4997140;28;20025;-53
2023/07/01 11:43:44;;;;;;;116.15;13.30;;;23.70;68.10;;;;;;5019812;28;20034;-52
2023/07/01 11:46:10;;;;;;;95.70;11.45;;;23.70;67.50;;;;;;5007998;28;20451;-52
2023/07/01 11:48:36;;;;;;;88.97;10.77;;;23.80;66.90;;;;;;5035475;28;20030;-52
2023/07/01 11:51:02;;;;;;;58.53;9.65;;;23.80;66.70;;;;;;5025847;28;20128;-52
2023/07/01 11:53:28;;;;;;;71.20;9.52;;;23.90;66.70;;;;;;5001933;28;21508;-52
2023/07/01 11:55:56;;;;;;;54.65;7.88;;;23.90;66.30;;;;;;5015573;28;20033;-52
2023/07/01 11:58:32;;;;;;;66.35;8.90;;;23.90;66.20;;;;;;5006984;28;20050;-52
2023/07/01 12:00:58;;;;;;;69.13;9.05;;;24.00;66.20;;;;;;5006167;28;20036;-53
2023/07/01 12:03:33;;;;;;;59.80;8.35;;;23.90;66.10;;;;;;5022217;28;20053;-52
2023/07/01 12:05:59;;;;;;;111.75;11.32;;;24.00;65.90;;;;;;5021047;28;20061;-53
2023/07/01 12:08:24;;;;;;;93.13;11.32;;;24.00;65.80;;;;;;5024573;28;20038;-52
2023/07/01 12:10:50;;;;;;;89.40;10.77;;;24.10;65.90;;;;;;5020196;28;20110;-52
2023/07/01 12:13:28;;;;;;;60.42;8.10;;;24.10;65.90;;;;;;5025702;28;20045;-52
2023/07/01 12:15:57;;;;;;;65.07;8.98;;;24.10;65.50;;;;;;5014808;28;20037;-52
2023/07/01 12:18:26;;;;;;;51.70;7.50;;;24.20;65.70;;;;;;5017557;28;20490;-52
2023/07/01 12:20:52;;;;;;;50.20;7.50;;;24.20;65.40;;;;;;5005875;28;20327;-52
2023/07/01 12:23:18;;;;;;;63.97;8.27;;;24.20;65.10;;;;;;5024634;28;20056;-52
2023/07/01 12:25:43;;;;;;;69.20;9.88;;;24.30;65.10;;;;;;5025103;28;20025;-53
2023/07/01 12:28:09;;;;;;;71.13;8.85;;;24.30;65.00;;;;;;5013841;28;20041;-51
2023/07/01 12:30:35;;;;;;;69.10;8.85;;;24.40;65.00;;;;;;5024901;28;20030;-52
2023/07/01 12:33:00;;;;;;;76.85;9.48;;;24.50;64.70;;;;;;5024945;28;20030;-52
2023/07/01 12:35:26;;;;;;;84.13;10.13;;;24.60;64.40;;;;;;5026197;28;20044;-51